K4BLL Weather Reports


Display with metric or nautical units.
time (UTC)temp
F
wind
direction
speed
MPH
gust
MPH
rain 1hr
in
rain 24hr
in
rain mn
in
humidity
%
barometer
mb
20210926014653 64 299 0.0 0.0 0.00 0.00 0.00 90 1018.1
20210926013154 64 299 0.0 0.0 0.00 0.00 0.00 89 1018.0
20210926011652 65 299 0.0 0.0 0.00 0.00 0.00 89 1017.9
20210926010106 65 299 0.0 0.0 0.00 0.00 0.00 88 1017.8
20210926004638 66 299 0.0 0.0 0.00 0.00 0.00 87 1017.6
20210926003106 66 299 0.0 0.0 0.00 0.00 0.00 85 1017.5
20210926001557 67 299 0.0 0.0 0.00 0.00 0.00 83 1017.3
20210926000116 68 299 0.0 0.0 0.00 0.00 0.00 82 1017.1
20210925234608 70 299 0.0 0.0 0.00 0.00 0.00 79 1017.1
20210925233117 72 299 0.0 0.0 0.00 0.00 0.00 72 1017.0
20210925231626 74 299 0.0 0.0 0.00 0.00 0.00 66 1016.9
20210925224600 77 299 0.0 0.0 0.00 0.00 0.00 56 1016.8
20210925223147 77 298 0.0 0.0 0.00 0.00 0.00 56 1016.9
20210925221556 77 218 0.0 0.0 0.00 0.00 0.00 55 1016.9
20210925220058 78 345 0.0 0.0 0.00 0.00 0.00 56 1016.9
20210925214549 78 351 0.0 0.0 0.00 0.00 0.00 55 1016.8
20210925213138 78 116 0.0 5.0 0.00 0.00 0.00 53 1016.9
20210925211603 78 329 0.0 2.0 0.00 0.00 0.00 54 1017.0
20210925210138 78 113 0.0 2.0 0.00 0.00 0.00 54 1016.8
20210925204558 78 32 0.0 2.0 0.00 0.00 0.00 53 1017.1
20210925203101 78 332 0.0 2.0 0.00 0.00 0.00 53 1017.0
20210925201609 79 342 0.0 2.0 0.00 0.00 0.00 51 1017.3
20210925200105 79 340 0.0 0.0 0.00 0.00 0.00 52 1017.4
20210925194619 78 351 0.0 0.0 0.00 0.00 0.00 52 1017.5
20210925193041 79 332 0.0 2.0 0.00 0.00 0.00 51 1017.6
20210925191543 79 328 0.0 4.0 0.00 0.00 0.00 52 1017.8
20210925190037 79 328 1.0 4.0 0.00 0.00 0.00 51 1017.9
20210925184534 80 50 0.0 2.0 0.00 0.00 0.00 49 1018.1
20210925183041 80 358 0.0 3.0 0.00 0.00 0.00 49 1018.4
20210925181522 79 94 0.0 3.0 0.00 0.00 0.00 49 1018.5
20210925180032 81 297 0.0 0.0 0.00 0.00 0.00 51 1018.5
20210925174523 80 203 0.0 2.0 0.00 0.00 0.00 51 1018.6
20210925173015 78 134 0.0 2.0 0.00 0.00 0.00 55 1018.9
20210925171512 79 278 0.0 2.0 0.00 0.00 0.00 54 1019.0
20210925170009 78 330 0.0 3.0 0.00 0.00 0.00 56 1019.2
20210925164509 77 305 0.0 2.0 0.00 0.00 0.00 57 1019.2
20210925163029 78 106 0.0 3.0 0.00 0.00 0.00 55 1019.4
20210925161514 76 216 0.0 3.0 0.00 0.00 0.00 57 1019.6
20210925160006 77 340 0.0 2.0 0.00 0.00 0.00 55 1019.7
20210925153009 76 109 1.0 3.0 0.00 0.00 0.00 59 1019.6
20210925151649 74 199 0.0 0.0 0.00 0.00 0.00 70 1020.0
20210925150127 73 338 0.0 0.0 0.00 0.00 0.00 71 1020.1
20210925144620 72 338 0.0 0.0 0.00 0.00 0.00 75 1020.2
20210925143130 72 122 0.0 0.0 0.00 0.00 0.00 73 1020.1
20210925141631 71 122 0.0 0.0 0.00 0.00 0.00 75 1020.1
20210925140056 70 122 0.0 0.0 0.00 0.00 0.00 75 1019.9
20210925134723 69 122 0.0 0.0 0.00 0.00 0.00 76 1019.8
20210925133148 67 122 0.0 0.0 0.00 0.00 0.00 79 1019.9
20210925131542 64 122 0.0 0.0 0.00 0.00 0.00 88 1019.8
20210925130045 61 119 0.0 0.0 0.00 0.00 0.00 92 1019.9
20210925124626 61 119 0.0 0.0 0.00 0.00 0.00 96 1019.7
20210925123113 56 119 0.0 0.0 0.00 0.00 0.00 96 1019.7
20210925121525 55 119 0.0 0.0 0.00 0.00 0.00 95 1019.6
20210925120024 54 119 0.0 0.0 0.00 0.00 0.00 95 1019.6
20210925114533 54 119 0.0 0.0 0.00 0.00 0.00 95 1019.4
20210925113025 54 119 0.0 0.0 0.00 0.00 0.00 95 1019.2
20210925111548 54 119 0.0 0.0 0.00 0.00 0.00 95 1019.1
20210925110028 54 119 0.0 0.0 0.00 0.00 0.00 95 1019.0
20210925104514 54 119 0.0 0.0 0.00 0.00 0.00 95 1018.9
20210925103012 54 119 0.0 0.0 0.00 0.00 0.00 95 1018.7
20210925101518 54 119 0.0 0.0 0.00 0.00 0.00 95 1018.7
20210925100018 54 119 0.0 0.0 0.00 0.00 0.00 95 1018.5
20210925094513 55 119 0.0 0.0 0.00 0.00 0.00 95 1018.6
20210925093013 55 119 0.0 0.0 0.00 0.00 0.00 95 1018.6
20210925091513 55 119 0.0 0.0 0.00 0.00 0.00 95 1018.5
20210925090008 55 119 0.0 0.0 0.00 0.00 0.00 95 1018.6
20210925084504 55 119 0.0 0.0 0.00 0.00 0.00 95 1018.5
20210925081503 56 119 0.0 0.0 0.00 0.00 0.00 95 1018.2
20210925080252 56 119 0.0 0.0 0.00 0.00 0.00 95 1018.3
20210925074728 56 119 0.0 0.0 0.00 0.00 0.00 95 1018.3
20210925073227 56 119 0.0 0.0 0.00 0.00 0.00 94 1018.3
20210925071621 56 119 0.0 0.0 0.00 0.00 0.00 94 1018.3
20210925070116 56 119 0.0 0.0 0.00 0.00 0.00 94 1018.2
20210925064712 56 119 0.0 0.0 0.00 0.00 0.00 94 1018.0
20210925063212 57 119 0.0 0.0 0.00 0.00 0.00 94 1018.1
20210925061701 57 119 0.0 0.0 0.00 0.00 0.00 94 1018.0
20210925060155 57 119 0.0 0.0 0.00 0.00 0.00 94 1018.1
20210925054608 57 119 0.0 0.0 0.00 0.00 0.00 94 1018.1
20210925053110 57 119 0.0 0.0 0.00 0.00 0.00 94 1018.1
20210925051558 58 119 0.0 0.0 0.00 0.00 0.00 93 1018.2
20210925050129 58 119 0.0 0.0 0.00 0.00 0.00 93 1018.3
20210925044637 58 119 0.0 0.0 0.00 0.00 0.00 93 1018.5
20210925043044 58 119 0.0 0.0 0.00 0.00 0.00 93 1018.7
20210925041554 59 119 0.0 0.0 0.00 0.00 0.00 93 1018.7
20210925040043 59 119 0.0 0.0 0.00 0.00 0.00 92 1018.7
20210925034601 59 119 0.0 0.0 0.00 0.00 0.00 92 1018.6
20210925033147 60 119 0.0 0.0 0.00 0.00 0.00 92 1018.5
20210925031654 60 119 0.0 0.0 0.00 0.00 0.00 91 1018.4
20210925030128 60 119 0.0 0.0 0.00 0.00 0.00 91 1018.4
20210925024635 60 119 0.0 0.0 0.00 0.00 0.00 91 1018.4
20210925023108 61 119 0.0 0.0 0.00 0.00 0.00 90 1018.2
20210925020049 62 119 0.0 0.0 0.00 0.00 0.00 89 1018.1